sensor_id;sensor_type;location;lat;lon;timestamp;temperature;humidity
6270;DHT22;3168;51.684;6.954;2023-07-13T00:01:02;17.60;1.00
6270;DHT22;3168;51.684;6.954;2023-07-13T00:03:28;17.50;1.00
6270;DHT22;3168;51.684;6.954;2023-07-13T00:05:57;17.50;1.00
6270;DHT22;3168;51.684;6.954;2023-07-13T00:08:22;17.40;1.00
6270;DHT22;3168;51.684;6.954;2023-07-13T00:10:48;17.40;1.00
6270;DHT22;3168;51.684;6.954;2023-07-13T00:13:14;17.40;1.00
6270;DHT22;3168;51.684;6.954;2023-07-13T00:15:40;17.40;1.00
6270;DHT22;3168;51.684;6.954;2023-07-13T00:18:05;17.30;1.00
6270;DHT22;3168;51.684;6.954;2023-07-13T00:20:31;17.30;1.00
6270;DHT22;3168;51.684;6.954;2023-07-13T00:22:58;17.30;1.00
6270;DHT22;3168;51.684;6.954;2023-07-13T00:25:24;17.30;1.00
6270;DHT22;3168;51.684;6.954;2023-07-13T00:27:50;17.30;1.00
6270;DHT22;3168;51.684;6.954;2023-07-13T00:30:15;17.20;1.00
6270;DHT22;3168;51.684;6.954;2023-07-13T00:32:41;17.20;1.00
6270;DHT22;3168;51.684;6.954;2023-07-13T00:35:07;17.10;1.00
6270;DHT22;3168;51.684;6.954;2023-07-13T00:37:33;17.20;1.00
6270;DHT22;3168;51.684;6.954;2023-07-13T00:39:59;17.10;1.00
6270;DHT22;3168;51.684;6.954;2023-07-13T00:42:25;17.10;1.00
6270;DHT22;3168;51.684;6.954;2023-07-13T00:45:01;17.00;1.00
6270;DHT22;3168;51.684;6.954;2023-07-13T00:47:26;17.00;1.00
6270;DHT22;3168;51.684;6.954;2023-07-13T00:49:51;16.90;1.00
6270;DHT22;3168;51.684;6.954;2023-07-13T00:52:17;16.90;1.00
6270;DHT22;3168;51.684;6.954;2023-07-13T00:54:44;16.90;1.00
6270;DHT22;3168;51.684;6.954;2023-07-13T00:57:09;16.90;1.00
6270;DHT22;3168;51.684;6.954;2023-07-13T00:59:35;16.80;1.00
6270;DHT22;3168;51.684;6.954;2023-07-13T01:02:00;16.90;1.00
6270;DHT22;3168;51.684;6.954;2023-07-13T01:04:26;16.90;1.00
6270;DHT22;3168;51.684;6.954;2023-07-13T01:06:52;16.90;1.00
6270;DHT22;3168;51.684;6.954;2023-07-13T01:09:19;16.90;1.00
6270;DHT22;3168;51.684;6.954;2023-07-13T01:11:44;16.80;1.00
6270;DHT22;3168;51.684;6.954;2023-07-13T01:14:10;16.80;1.00
6270;DHT22;3168;51.684;6.954;2023-07-13T01:16:36;16.80;1.00
6270;DHT22;3168;51.684;6.954;2023-07-13T01:19:01;16.90;1.00
6270;DHT22;3168;51.684;6.954;2023-07-13T01:21:27;16.80;1.00
6270;DHT22;3168;51.684;6.954;2023-07-13T01:23:53;16.80;1.00
6270;DHT22;3168;51.684;6.954;2023-07-13T01:26:19;16.70;1.00
6270;DHT22;3168;51.684;6.954;2023-07-13T01:28:45;16.80;1.00
6270;DHT22;3168;51.684;6.954;2023-07-13T01:31:11;16.80;1.00
6270;DHT22;3168;51.684;6.954;2023-07-13T01:33:37;16.70;1.00
6270;DHT22;3168;51.684;6.954;2023-07-13T01:36:02;16.80;1.00
6270;DHT22;3168;51.684;6.954;2023-07-13T01:38:28;16.70;1.00
6270;DHT22;3168;51.684;6.954;2023-07-13T01:40:54;16.70;1.00
6270;DHT22;3168;51.684;6.954;2023-07-13T01:43:20;16.70;1.00
6270;DHT22;3168;51.684;6.954;2023-07-13T01:45:45;16.60;1.00
6270;DHT22;3168;51.684;6.954;2023-07-13T01:48:11;16.60;1.00
6270;DHT22;3168;51.684;6.954;2023-07-13T01:50:37;16.40;1.00
6270;DHT22;3168;51.684;6.954;2023-07-13T01:53:03;16.40;1.00
6270;DHT22;3168;51.684;6.954;2023-07-13T01:55:29;16.40;1.00
6270;DHT22;3168;51.684;6.954;2023-07-13T01:57:54;16.30;1.00
6270;DHT22;3168;51.684;6.954;2023-07-13T02:00:20;16.30;1.00
6270;DHT22;3168;51.684;6.954;2023-07-13T02:02:46;16.30;1.00
6270;DHT22;3168;51.684;6.954;2023-07-13T02:05:12;16.30;1.00
6270;DHT22;3168;51.684;6.954;2023-07-13T02:07:38;16.20;1.00
6270;DHT22;3168;51.684;6.954;2023-07-13T02:10:04;16.20;1.00
6270;DHT22;3168;51.684;6.954;2023-07-13T02:12:30;16.20;1.00
6270;DHT22;3168;51.684;6.954;2023-07-13T02:14:56;16.20;1.00
6270;DHT22;3168;51.684;6.954;2023-07-13T02:17:22;16.20;1.00
6270;DHT22;3168;51.684;6.954;2023-07-13T02:19:47;16.20;1.00
6270;DHT22;3168;51.684;6.954;2023-07-13T02:22:13;16.20;1.00
6270;DHT22;3168;51.684;6.954;2023-07-13T02:24:39;16.20;1.00
6270;DHT22;3168;51.684;6.954;2023-07-13T02:27:05;16.20;1.00
6270;DHT22;3168;51.684;6.954;2023-07-13T02:29:31;16.10;1.00
6270;DHT22;3168;51.684;6.954;2023-07-13T02:31:57;16.10;1.00
6270;DHT22;3168;51.684;6.954;2023-07-13T02:37:07;16.10;1.00
6270;DHT22;3168;51.684;6.954;2023-07-13T02:39:32;16.10;1.00
6270;DHT22;3168;51.684;6.954;2023-07-13T02:41:58;16.10;1.00
6270;DHT22;3168;51.684;6.954;2023-07-13T02:44:24;16.10;1.00
6270;DHT22;3168;51.684;6.954;2023-07-13T02:46:50;16.10;1.00
6270;DHT22;3168;51.684;6.954;2023-07-13T02:49:15;16.20;1.00
6270;DHT22;3168;51.684;6.954;2023-07-13T02:51:41;16.20;1.00
6270;DHT22;3168;51.684;6.954;2023-07-13T02:54:07;16.10;1.00
6270;DHT22;3168;51.684;6.954;2023-07-13T02:56:33;16.10;1.00
6270;DHT22;3168;51.684;6.954;2023-07-13T02:58:58;16.10;1.00
6270;DHT22;3168;51.684;6.954;2023-07-13T03:01:25;16.10;1.00
6270;DHT22;3168;51.684;6.954;2023-07-13T03:03:50;16.10;1.00
6270;DHT22;3168;51.684;6.954;2023-07-13T03:06:16;16.10;1.00
6270;DHT22;3168;51.684;6.954;2023-07-13T03:08:42;16.10;1.00
6270;DHT22;3168;51.684;6.954;2023-07-13T03:11:08;16.10;1.00
6270;DHT22;3168;51.684;6.954;2023-07-13T03:13:34;16.10;1.00
6270;DHT22;3168;51.684;6.954;2023-07-13T03:16:00;16.10;1.00
6270;DHT22;3168;51.684;6.954;2023-07-13T03:18:26;16.00;1.00
6270;DHT22;3168;51.684;6.954;2023-07-13T03:20:51;16.00;1.00
6270;DHT22;3168;51.684;6.954;2023-07-13T03:23:17;15.90;1.00
6270;DHT22;3168;51.684;6.954;2023-07-13T03:25:43;15.90;1.00
6270;DHT22;3168;51.684;6.954;2023-07-13T03:28:08;15.90;1.00
6270;DHT22;3168;51.684;6.954;2023-07-13T03:30:34;16.00;1.00
6270;DHT22;3168;51.684;6.954;2023-07-13T03:33:00;16.00;1.00
6270;DHT22;3168;51.684;6.954;2023-07-13T03:35:26;16.00;1.00
6270;DHT22;3168;51.684;6.954;2023-07-13T03:37:51;16.00;1.00
6270;DHT22;3168;51.684;6.954;2023-07-13T03:40:17;16.00;1.00
6270;DHT22;3168;51.684;6.954;2023-07-13T03:42:43;16.00;1.00
6270;DHT22;3168;51.684;6.954;2023-07-13T03:45:09;16.10;1.00
6270;DHT22;3168;51.684;6.954;2023-07-13T03:47:35;16.20;1.00
6270;DHT22;3168;51.684;6.954;2023-07-13T03:50:01;16.20;1.00
6270;DHT22;3168;51.684;6.954;2023-07-13T03:52:26;16.20;1.00
6270;DHT22;3168;51.684;6.954;2023-07-13T03:54:52;16.30;1.00
6270;DHT22;3168;51.684;6.954;2023-07-13T03:57:20;16.30;1.00
6270;DHT22;3168;51.684;6.954;2023-07-13T03:59:46;16.30;1.00
6270;DHT22;3168;51.684;6.954;2023-07-13T04:02:11;16.20;1.00
6270;DHT22;3168;51.684;6.954;2023-07-13T04:04:37;16.10;1.00
6270;DHT22;3168;51.684;6.954;2023-07-13T04:07:03;16.10;1.00
6270;DHT22;3168;51.684;6.954;2023-07-13T04:09:29;16.10;1.00
6270;DHT22;3168;51.684;6.954;2023-07-13T04:11:56;16.00;1.00
6270;DHT22;3168;51.684;6.954;2023-07-13T04:14:21;16.10;1.00
6270;DHT22;3168;51.684;6.954;2023-07-13T04:16:48;16.10;1.00
6270;DHT22;3168;51.684;6.954;2023-07-13T04:19:14;16.00;1.00
6270;DHT22;3168;51.684;6.954;2023-07-13T04:21:40;16.10;1.00
6270;DHT22;3168;51.684;6.954;2023-07-13T04:24:06;16.20;1.00
6270;DHT22;3168;51.684;6.954;2023-07-13T04:26:31;16.20;1.00
6270;DHT22;3168;51.684;6.954;2023-07-13T04:28:57;16.30;1.00
6270;DHT22;3168;51.684;6.954;2023-07-13T04:31:23;16.30;1.00
6270;DHT22;3168;51.684;6.954;2023-07-13T04:33:49;16.30;1.00
6270;DHT22;3168;51.684;6.954;2023-07-13T04:36:15;16.30;1.00
6270;DHT22;3168;51.684;6.954;2023-07-13T04:38:40;16.40;1.00
6270;DHT22;3168;51.684;6.954;2023-07-13T04:41:07;16.50;1.00
6270;DHT22;3168;51.684;6.954;2023-07-13T04:43:32;16.60;1.00
6270;DHT22;3168;51.684;6.954;2023-07-13T04:46:03;16.60;1.00
6270;DHT22;3168;51.684;6.954;2023-07-13T04:48:24;16.50;1.00
6270;DHT22;3168;51.684;6.954;2023-07-13T04:50:55;16.40;1.00
6270;DHT22;3168;51.684;6.954;2023-07-13T04:53:19;16.30;1.00
6270;DHT22;3168;51.684;6.954;2023-07-13T04:55:45;16.40;1.00
6270;DHT22;3168;51.684;6.954;2023-07-13T04:58:11;16.40;1.00
6270;DHT22;3168;51.684;6.954;2023-07-13T05:00:37;16.50;1.00
6270;DHT22;3168;51.684;6.954;2023-07-13T05:03:03;16.50;1.00
6270;DHT22;3168;51.684;6.954;2023-07-13T05:05:28;16.50;1.00
6270;DHT22;3168;51.684;6.954;2023-07-13T05:07:54;16.50;1.00
6270;DHT22;3168;51.684;6.954;2023-07-13T05:10:20;16.50;1.00
6270;DHT22;3168;51.684;6.954;2023-07-13T05:12:46;16.40;1.00
6270;DHT22;3168;51.684;6.954;2023-07-13T05:15:12;16.40;1.00
6270;DHT22;3168;51.684;6.954;2023-07-13T05:17:37;16.50;1.00
6270;DHT22;3168;51.684;6.954;2023-07-13T05:20:04;16.60;1.00
6270;DHT22;3168;51.684;6.954;2023-07-13T05:22:29;16.70;1.00
6270;DHT22;3168;51.684;6.954;2023-07-13T05:24:55;16.70;1.00
6270;DHT22;3168;51.684;6.954;2023-07-13T05:27:21;16.70;1.00
6270;DHT22;3168;51.684;6.954;2023-07-13T05:29:47;16.60;1.00
6270;DHT22;3168;51.684;6.954;2023-07-13T05:32:13;16.60;1.00
6270;DHT22;3168;51.684;6.954;2023-07-13T05:34:38;16.50;1.00
6270;DHT22;3168;51.684;6.954;2023-07-13T05:37:04;16.50;1.00
6270;DHT22;3168;51.684;6.954;2023-07-13T05:39:30;16.60;1.00
6270;DHT22;3168;51.684;6.954;2023-07-13T05:41:56;16.60;1.00
6270;DHT22;3168;51.684;6.954;2023-07-13T05:44:21;16.70;1.00
6270;DHT22;3168;51.684;6.954;2023-07-13T05:46:47;16.70;1.00
6270;DHT22;3168;51.684;6.954;2023-07-13T05:49:13;16.80;1.00
6270;DHT22;3168;51.684;6.954;2023-07-13T05:51:39;16.90;1.00
6270;DHT22;3168;51.684;6.954;2023-07-13T05:54:05;16.80;1.00
6270;DHT22;3168;51.684;6.954;2023-07-13T05:56:30;16.80;1.00
6270;DHT22;3168;51.684;6.954;2023-07-13T05:58:56;17.00;1.00
6270;DHT22;3168;51.684;6.954;2023-07-13T06:01:22;17.10;1.00
6270;DHT22;3168;51.684;6.954;2023-07-13T06:03:48;16.90;1.00
6270;DHT22;3168;51.684;6.954;2023-07-13T06:06:14;16.90;1.00
6270;DHT22;3168;51.684;6.954;2023-07-13T06:08:39;17.10;1.00
6270;DHT22;3168;51.684;6.954;2023-07-13T06:11:06;17.20;1.00
6270;DHT22;3168;51.684;6.954;2023-07-13T06:13:32;17.50;1.00
6270;DHT22;3168;51.684;6.954;2023-07-13T06:15:57;17.50;1.00
6270;DHT22;3168;51.684;6.954;2023-07-13T06:18:23;17.40;1.00
6270;DHT22;3168;51.684;6.954;2023-07-13T06:20:49;17.30;1.00
6270;DHT22;3168;51.684;6.954;2023-07-13T06:23:15;17.20;1.00
6270;DHT22;3168;51.684;6.954;2023-07-13T06:25:41;17.30;1.00
6270;DHT22;3168;51.684;6.954;2023-07-13T06:28:06;17.30;1.00
6270;DHT22;3168;51.684;6.954;2023-07-13T06:30:32;17.50;1.00
6270;DHT22;3168;51.684;6.954;2023-07-13T06:32:58;17.70;1.00
6270;DHT22;3168;51.684;6.954;2023-07-13T06:35:24;17.70;1.00
6270;DHT22;3168;51.684;6.954;2023-07-13T06:37:49;17.50;1.00
6270;DHT22;3168;51.684;6.954;2023-07-13T06:40:15;17.40;1.00
6270;DHT22;3168;51.684;6.954;2023-07-13T06:42:43;17.20;1.00
6270;DHT22;3168;51.684;6.954;2023-07-13T06:45:09;17.20;1.00
6270;DHT22;3168;51.684;6.954;2023-07-13T06:47:35;17.40;1.00
6270;DHT22;3168;51.684;6.954;2023-07-13T06:50:01;17.50;1.00
6270;DHT22;3168;51.684;6.954;2023-07-13T06:52:27;17.60;1.00
6270;DHT22;3168;51.684;6.954;2023-07-13T06:54:54;17.60;1.00
6270;DHT22;3168;51.684;6.954;2023-07-13T06:57:19;17.60;1.00
6270;DHT22;3168;51.684;6.954;2023-07-13T06:59:45;17.90;1.00
6270;DHT22;3168;51.684;6.954;2023-07-13T07:02:11;17.70;1.00
6270;DHT22;3168;51.684;6.954;2023-07-13T07:04:37;17.80;1.00
6270;DHT22;3168;51.684;6.954;2023-07-13T07:07:03;17.90;1.00
6270;DHT22;3168;51.684;6.954;2023-07-13T07:09:29;17.80;1.00
6270;DHT22;3168;51.684;6.954;2023-07-13T07:11:55;17.90;1.00
6270;DHT22;3168;51.684;6.954;2023-07-13T07:14:20;18.10;1.00
6270;DHT22;3168;51.684;6.954;2023-07-13T07:16:46;17.90;1.00
6270;DHT22;3168;51.684;6.954;2023-07-13T07:19:12;17.90;1.00
6270;DHT22;3168;51.684;6.954;2023-07-13T07:21:38;17.90;1.00
6270;DHT22;3168;51.684;6.954;2023-07-13T07:24:04;17.90;1.00
6270;DHT22;3168;51.684;6.954;2023-07-13T07:26:31;18.00;1.00
6270;DHT22;3168;51.684;6.954;2023-07-13T07:28:56;18.00;1.00
6270;DHT22;3168;51.684;6.954;2023-07-13T07:31:22;18.00;1.00
6270;DHT22;3168;51.684;6.954;2023-07-13T07:33:49;18.10;1.00
6270;DHT22;3168;51.684;6.954;2023-07-13T07:36:16;18.20;1.00
6270;DHT22;3168;51.684;6.954;2023-07-13T07:38:42;18.10;1.00
6270;DHT22;3168;51.684;6.954;2023-07-13T07:41:08;18.20;1.00
6270;DHT22;3168;51.684;6.954;2023-07-13T07:43:34;18.20;1.00
6270;DHT22;3168;51.684;6.954;2023-07-13T07:45:59;18.40;1.00
6270;DHT22;3168;51.684;6.954;2023-07-13T07:48:25;18.40;1.00
6270;DHT22;3168;51.684;6.954;2023-07-13T07:50:51;18.60;1.00
6270;DHT22;3168;51.684;6.954;2023-07-13T07:53:16;18.80;1.00
6270;DHT22;3168;51.684;6.954;2023-07-13T07:55:42;18.80;1.00
6270;DHT22;3168;51.684;6.954;2023-07-13T07:58:09;18.70;1.00
6270;DHT22;3168;51.684;6.954;2023-07-13T08:00:34;18.60;1.00
6270;DHT22;3168;51.684;6.954;2023-07-13T08:03:00;18.70;1.00
6270;DHT22;3168;51.684;6.954;2023-07-13T08:05:25;18.80;1.00
6270;DHT22;3168;51.684;6.954;2023-07-13T08:07:51;19.00;1.00
6270;DHT22;3168;51.684;6.954;2023-07-13T08:10:17;19.20;1.00
6270;DHT22;3168;51.684;6.954;2023-07-13T08:12:43;19.40;1.00
6270;DHT22;3168;51.684;6.954;2023-07-13T08:15:16;19.50;1.00
6270;DHT22;3168;51.684;6.954;2023-07-13T08:17:35;19.80;1.00
6270;DHT22;3168;51.684;6.954;2023-07-13T08:20:02;19.70;1.00
6270;DHT22;3168;51.684;6.954;2023-07-13T08:22:27;20.00;1.00
6270;DHT22;3168;51.684;6.954;2023-07-13T08:24:54;20.00;1.00
6270;DHT22;3168;51.684;6.954;2023-07-13T08:27:23;20.20;1.00
6270;DHT22;3168;51.684;6.954;2023-07-13T08:29:48;20.20;1.00
6270;DHT22;3168;51.684;6.954;2023-07-13T08:32:14;19.90;1.00
6270;DHT22;3168;51.684;6.954;2023-07-13T08:34:39;19.90;1.00
6270;DHT22;3168;51.684;6.954;2023-07-13T08:37:06;20.10;1.00
6270;DHT22;3168;51.684;6.954;2023-07-13T08:39:31;19.90;1.00
6270;DHT22;3168;51.684;6.954;2023-07-13T08:42:00;19.40;1.00
6270;DHT22;3168;51.684;6.954;2023-07-13T08:44:30;19.40;1.00
6270;DHT22;3168;51.684;6.954;2023-07-13T08:46:51;19.50;1.00
6270;DHT22;3168;51.684;6.954;2023-07-13T08:49:18;19.20;1.00
6270;DHT22;3168;51.684;6.954;2023-07-13T08:51:45;19.30;1.00
6270;DHT22;3168;51.684;6.954;2023-07-13T08:54:19;19.30;1.00
6270;DHT22;3168;51.684;6.954;2023-07-13T08:56:43;19.30;1.00
6270;DHT22;3168;51.684;6.954;2023-07-13T08:59:11;19.70;1.00
6270;DHT22;3168;51.684;6.954;2023-07-13T09:04:26;20.00;1.00
6270;DHT22;3168;51.684;6.954;2023-07-13T09:07:14;20.00;1.00
6270;DHT22;3168;51.684;6.954;2023-07-13T09:09:49;19.80;1.00
6270;DHT22;3168;51.684;6.954;2023-07-13T09:12:19;19.60;1.00
6270;DHT22;3168;51.684;6.954;2023-07-13T09:14:47;19.50;1.00
6270;DHT22;3168;51.684;6.954;2023-07-13T09:17:13;19.70;1.00
6270;DHT22;3168;51.684;6.954;2023-07-13T09:19:37;19.80;1.00
6270;DHT22;3168;51.684;6.954;2023-07-13T09:22:03;20.10;1.00
6270;DHT22;3168;51.684;6.954;2023-07-13T09:24:36;20.60;1.00
6270;DHT22;3168;51.684;6.954;2023-07-13T09:27:00;20.60;1.00
6270;DHT22;3168;51.684;6.954;2023-07-13T09:29:27;21.10;1.00
6270;DHT22;3168;51.684;6.954;2023-07-13T09:31:53;20.40;1.00
6270;DHT22;3168;51.684;6.954;2023-07-13T09:34:19;19.90;1.00
6270;DHT22;3168;51.684;6.954;2023-07-13T09:36:45;19.90;1.00
6270;DHT22;3168;51.684;6.954;2023-07-13T09:39:25;19.90;1.00
6270;DHT22;3168;51.684;6.954;2023-07-13T09:41:51;19.90;1.00
6270;DHT22;3168;51.684;6.954;2023-07-13T09:44:18;20.10;1.00
6270;DHT22;3168;51.684;6.954;2023-07-13T09:46:45;20.20;1.00
6270;DHT22;3168;51.684;6.954;2023-07-13T09:49:10;20.50;1.00
6270;DHT22;3168;51.684;6.954;2023-07-13T09:51:37;20.40;1.00
6270;DHT22;3168;51.684;6.954;2023-07-13T09:54:02;20.50;1.00
6270;DHT22;3168;51.684;6.954;2023-07-13T09:56:28;20.60;1.00
6270;DHT22;3168;51.684;6.954;2023-07-13T09:58:53;20.50;1.00
6270;DHT22;3168;51.684;6.954;2023-07-13T10:01:31;20.50;1.00
6270;DHT22;3168;51.684;6.954;2023-07-13T10:03:56;20.30;1.00
6270;DHT22;3168;51.684;6.954;2023-07-13T10:06:22;20.10;1.00
6270;DHT22;3168;51.684;6.954;2023-07-13T10:08:49;20.20;1.00
6270;DHT22;3168;51.684;6.954;2023-07-13T10:11:27;20.20;1.00
6270;DHT22;3168;51.684;6.954;2023-07-13T10:13:55;20.50;1.00
6270;DHT22;3168;51.684;6.954;2023-07-13T10:16:21;20.90;1.00
6270;DHT22;3168;51.684;6.954;2023-07-13T10:18:49;20.80;1.00
6270;DHT22;3168;51.684;6.954;2023-07-13T10:21:16;21.00;1.00
6270;DHT22;3168;51.684;6.954;2023-07-13T10:23:41;21.00;1.00
6270;DHT22;3168;51.684;6.954;2023-07-13T10:26:09;21.20;1.00
6270;DHT22;3168;51.684;6.954;2023-07-13T10:28:34;21.40;1.00
6270;DHT22;3168;51.684;6.954;2023-07-13T10:30:59;21.60;1.00
6270;DHT22;3168;51.684;6.954;2023-07-13T10:33:24;21.80;1.00
6270;DHT22;3168;51.684;6.954;2023-07-13T10:35:51;22.30;1.00
6270;DHT22;3168;51.684;6.954;2023-07-13T10:38:21;22.20;1.00
6270;DHT22;3168;51.684;6.954;2023-07-13T10:40:51;22.00;1.00
6270;DHT22;3168;51.684;6.954;2023-07-13T10:43:18;21.70;1.00
6270;DHT22;3168;51.684;6.954;2023-07-13T10:45:43;21.60;1.00
6270;DHT22;3168;51.684;6.954;2023-07-13T10:48:10;21.70;1.00
6270;DHT22;3168;51.684;6.954;2023-07-13T10:50:35;21.70;1.00
6270;DHT22;3168;51.684;6.954;2023-07-13T10:53:02;21.60;1.00
6270;DHT22;3168;51.684;6.954;2023-07-13T10:55:33;21.60;1.00
6270;DHT22;3168;51.684;6.954;2023-07-13T10:58:00;21.70;1.00
6270;DHT22;3168;51.684;6.954;2023-07-13T11:00:25;21.70;1.00
6270;DHT22;3168;51.684;6.954;2023-07-13T11:03:01;21.80;1.00
6270;DHT22;3168;51.684;6.954;2023-07-13T11:05:29;21.80;1.00
6270;DHT22;3168;51.684;6.954;2023-07-13T11:07:55;21.80;1.00
6270;DHT22;3168;51.684;6.954;2023-07-13T11:12:59;22.00;1.00
6270;DHT22;3168;51.684;6.954;2023-07-13T11:15:27;22.00;1.00
6270;DHT22;3168;51.684;6.954;2023-07-13T11:17:54;22.60;1.00
6270;DHT22;3168;51.684;6.954;2023-07-13T11:20:21;22.60;1.00
6270;DHT22;3168;51.684;6.954;2023-07-13T11:28:05;22.90;1.00
6270;DHT22;3168;51.684;6.954;2023-07-13T11:30:32;22.80;1.00
6270;DHT22;3168;51.684;6.954;2023-07-13T11:33:19;22.40;1.00
6270;DHT22;3168;51.684;6.954;2023-07-13T11:35:51;22.40;1.00
6270;DHT22;3168;51.684;6.954;2023-07-13T11:38:21;22.60;1.00
6270;DHT22;3168;51.684;6.954;2023-07-13T11:40:46;22.70;1.00
6270;DHT22;3168;51.684;6.954;2023-07-13T11:43:12;23.00;1.00
6270;DHT22;3168;51.684;6.954;2023-07-13T11:45:37;23.20;1.00
6270;DHT22;3168;51.684;6.954;2023-07-13T11:48:03;23.30;1.00
6270;DHT22;3168;51.684;6.954;2023-07-13T11:50:29;23.00;1.00
6270;DHT22;3168;51.684;6.954;2023-07-13T11:52:55;23.10;1.00
6270;DHT22;3168;51.684;6.954;2023-07-13T11:55:21;23.50;1.00
6270;DHT22;3168;51.684;6.954;2023-07-13T11:57:49;23.60;1.00
6270;DHT22;3168;51.684;6.954;2023-07-13T12:00:14;23.80;1.00
6270;DHT22;3168;51.684;6.954;2023-07-13T12:02:40;23.60;1.00
6270;DHT22;3168;51.684;6.954;2023-07-13T12:05:05;24.10;1.00
6270;DHT22;3168;51.684;6.954;2023-07-13T12:07:32;23.70;1.00
6270;DHT22;3168;51.684;6.954;2023-07-13T12:10:03;24.10;1.00
6270;DHT22;3168;51.684;6.954;2023-07-13T12:12:28;23.90;1.00
6270;DHT22;3168;51.684;6.954;2023-07-13T12:14:54;23.60;1.00
6270;DHT22;3168;51.684;6.954;2023-07-13T12:17:20;23.00;1.00
6270;DHT22;3168;51.684;6.954;2023-07-13T12:19:45;22.70;1.00
6270;DHT22;3168;51.684;6.954;2023-07-13T12:22:12;22.70;1.00
6270;DHT22;3168;51.684;6.954;2023-07-13T12:24:37;22.60;1.00
6270;DHT22;3168;51.684;6.954;2023-07-13T12:27:04;23.20;1.00
6270;DHT22;3168;51.684;6.954;2023-07-13T12:29:31;23.40;1.00
6270;DHT22;3168;51.684;6.954;2023-07-13T12:31:57;23.30;1.00
6270;DHT22;3168;51.684;6.954;2023-07-13T12:34:24;23.20;1.00
6270;DHT22;3168;51.684;6.954;2023-07-13T12:36:50;23.20;1.00
6270;DHT22;3168;51.684;6.954;2023-07-13T12:39:16;22.90;1.00
6270;DHT22;3168;51.684;6.954;2023-07-13T12:41:41;22.60;1.00
6270;DHT22;3168;51.684;6.954;2023-07-13T12:44:09;22.50;1.00
6270;DHT22;3168;51.684;6.954;2023-07-13T12:46:38;22.00;1.00
6270;DHT22;3168;51.684;6.954;2023-07-13T12:49:05;21.30;1.00
6270;DHT22;3168;51.684;6.954;2023-07-13T12:51:35;19.80;1.00
6270;DHT22;3168;51.684;6.954;2023-07-13T12:54:16;18.70;1.00
6270;DHT22;3168;51.684;6.954;2023-07-13T12:56:42;18.00;26.80
6270;DHT22;3168;51.684;6.954;2023-07-13T12:59:08;17.50;34.30
6270;DHT22;3168;51.684;6.954;2023-07-13T13:01:34;17.30;43.20
6270;DHT22;3168;51.684;6.954;2023-07-13T13:04:01;17.00;62.20
6270;DHT22;3168;51.684;6.954;2023-07-13T13:06:26;16.70;75.30
6270;DHT22;3168;51.684;6.954;2023-07-13T13:08:52;16.50;87.50
6270;DHT22;3168;51.684;6.954;2023-07-13T13:11:18;16.70;99.90
6270;DHT22;3168;51.684;6.954;2023-07-13T13:13:43;16.50;92.20
6270;DHT22;3168;51.684;6.954;2023-07-13T13:16:14;16.40;91.80
6270;DHT22;3168;51.684;6.954;2023-07-13T13:18:43;16.40;93.70
6270;DHT22;3168;51.684;6.954;2023-07-13T13:21:14;16.40;95.30
6270;DHT22;3168;51.684;6.954;2023-07-13T13:23:45;16.40;98.70
6270;DHT22;3168;51.684;6.954;2023-07-13T13:26:11;16.60;99.90
6270;DHT22;3168;51.684;6.954;2023-07-13T13:28:36;16.60;99.90
6270;DHT22;3168;51.684;6.954;2023-07-13T13:31:02;16.50;95.00
6270;DHT22;3168;51.684;6.954;2023-07-13T13:33:28;16.50;95.10
6270;DHT22;3168;51.684;6.954;2023-07-13T13:35:54;16.70;99.20
6270;DHT22;3168;51.684;6.954;2023-07-13T13:38:21;16.70;99.90
6270;DHT22;3168;51.684;6.954;2023-07-13T13:40:45;16.80;98.60
6270;DHT22;3168;51.684;6.954;2023-07-13T13:43:15;16.60;90.80
6270;DHT22;3168;51.684;6.954;2023-07-13T13:45:40;16.70;93.50
6270;DHT22;3168;51.684;6.954;2023-07-13T13:48:06;16.70;90.00
6270;DHT22;3168;51.684;6.954;2023-07-13T13:50:31;17.00;82.40
6270;DHT22;3168;51.684;6.954;2023-07-13T13:52:57;17.30;85.10
6270;DHT22;3168;51.684;6.954;2023-07-13T13:55:23;17.60;78.90
6270;DHT22;3168;51.684;6.954;2023-07-13T13:57:49;17.50;57.80
6270;DHT22;3168;51.684;6.954;2023-07-13T14:00:16;17.70;46.30
6270;DHT22;3168;51.684;6.954;2023-07-13T14:02:42;17.70;27.20
6270;DHT22;3168;51.684;6.954;2023-07-13T14:05:09;17.70;26.70
6270;DHT22;3168;51.684;6.954;2023-07-13T14:07:35;17.70;23.60
6270;DHT22;3168;51.684;6.954;2023-07-13T14:10:01;17.80;20.30
6270;DHT22;3168;51.684;6.954;2023-07-13T14:12:27;17.80;19.10
6270;DHT22;3168;51.684;6.954;2023-07-13T14:14:53;17.80;14.80
6270;DHT22;3168;51.684;6.954;2023-07-13T14:17:21;17.80;14.60
6270;DHT22;3168;51.684;6.954;2023-07-13T14:19:47;17.80;26.70
6270;DHT22;3168;51.684;6.954;2023-07-13T14:22:12;17.90;55.30
6270;DHT22;3168;51.684;6.954;2023-07-13T14:24:38;18.00;59.60
6270;DHT22;3168;51.684;6.954;2023-07-13T14:27:04;17.90;47.00
6270;DHT22;3168;51.684;6.954;2023-07-13T14:29:30;17.90;40.80
6270;DHT22;3168;51.684;6.954;2023-07-13T14:31:56;18.00;55.30
6270;DHT22;3168;51.684;6.954;2023-07-13T14:34:22;18.00;46.40
6270;DHT22;3168;51.684;6.954;2023-07-13T14:36:48;18.00;46.40
6270;DHT22;3168;51.684;6.954;2023-07-13T14:39:15;18.10;55.40
6270;DHT22;3168;51.684;6.954;2023-07-13T14:41:40;18.10;45.70
6270;DHT22;3168;51.684;6.954;2023-07-13T14:44:13;18.50;36.50
6270;DHT22;3168;51.684;6.954;2023-07-13T14:46:38;19.20;27.60
6270;DHT22;3168;51.684;6.954;2023-07-13T14:49:05;19.80;12.10
6270;DHT22;3168;51.684;6.954;2023-07-13T14:51:30;20.50;1.00
6270;DHT22;3168;51.684;6.954;2023-07-13T14:53:56;21.00;1.00
6270;DHT22;3168;51.684;6.954;2023-07-13T14:56:22;21.30;1.00
6270;DHT22;3168;51.684;6.954;2023-07-13T14:58:47;21.60;1.00
6270;DHT22;3168;51.684;6.954;2023-07-13T15:01:13;22.20;1.00
6270;DHT22;3168;51.684;6.954;2023-07-13T15:03:40;22.40;1.00
6270;DHT22;3168;51.684;6.954;2023-07-13T15:06:05;22.60;1.00
6270;DHT22;3168;51.684;6.954;2023-07-13T15:08:30;22.80;1.00
6270;DHT22;3168;51.684;6.954;2023-07-13T15:10:56;22.30;1.00
6270;DHT22;3168;51.684;6.954;2023-07-13T15:13:23;21.50;1.00
6270;DHT22;3168;51.684;6.954;2023-07-13T15:15:50;21.50;1.00
6270;DHT22;3168;51.684;6.954;2023-07-13T15:18:16;21.30;1.00
6270;DHT22;3168;51.684;6.954;2023-07-13T15:20:41;21.10;1.00
6270;DHT22;3168;51.684;6.954;2023-07-13T15:23:08;21.10;1.00
6270;DHT22;3168;51.684;6.954;2023-07-13T15:25:33;21.00;1.00
6270;DHT22;3168;51.684;6.954;2023-07-13T15:28:00;20.80;1.00
6270;DHT22;3168;51.684;6.954;2023-07-13T15:30:26;20.70;1.00
6270;DHT22;3168;51.684;6.954;2023-07-13T15:32:51;20.50;1.00
6270;DHT22;3168;51.684;6.954;2023-07-13T15:35:18;20.40;1.00
6270;DHT22;3168;51.684;6.954;2023-07-13T15:37:43;20.40;1.00
6270;DHT22;3168;51.684;6.954;2023-07-13T15:40:10;20.20;1.00
6270;DHT22;3168;51.684;6.954;2023-07-13T15:42:36;20.20;1.00
6270;DHT22;3168;51.684;6.954;2023-07-13T15:45:03;20.10;1.00
6270;DHT22;3168;51.684;6.954;2023-07-13T15:47:29;20.10;1.00
6270;DHT22;3168;51.684;6.954;2023-07-13T15:49:54;19.90;1.00
6270;DHT22;3168;51.684;6.954;2023-07-13T15:52:22;19.90;1.00
6270;DHT22;3168;51.684;6.954;2023-07-13T15:54:46;19.80;1.00
6270;DHT22;3168;51.684;6.954;2023-07-13T15:57:12;19.80;1.00
6270;DHT22;3168;51.684;6.954;2023-07-13T15:59:37;19.70;1.00
6270;DHT22;3168;51.684;6.954;2023-07-13T16:02:20;19.50;1.00
6270;DHT22;3168;51.684;6.954;2023-07-13T16:04:46;19.60;1.00
6270;DHT22;3168;51.684;6.954;2023-07-13T16:07:11;19.60;1.00
6270;DHT22;3168;51.684;6.954;2023-07-13T16:09:37;19.50;1.00
6270;DHT22;3168;51.684;6.954;2023-07-13T16:12:04;19.60;1.00
6270;DHT22;3168;51.684;6.954;2023-07-13T16:14:28;19.50;1.00
6270;DHT22;3168;51.684;6.954;2023-07-13T16:16:54;19.50;3.20
6270;DHT22;3168;51.684;6.954;2023-07-13T16:19:20;19.40;3.00
6270;DHT22;3168;51.684;6.954;2023-07-13T16:21:46;19.40;4.80
6270;DHT22;3168;51.684;6.954;2023-07-13T16:24:17;19.30;1.00